KBTP/BTP METAR and TAF weather

Enter ICAO airport designator
Station Type Date Time Source
KBTP METAR 2019/12/16 02:56 UTC NOAA

KBTP 160256Z AUTO 00000KT 10SM OVC120 M02/M06 A3014 RMK AO2 SLP229 T10221056 58001 FZRANO


Station Type Date Time Source
KBTP Decoded METAR 2019/12/16 02:56 UTC NOAA

Butler, Butler County Airport/K W Scholter Field, PA, United States (KBTP) 40-47N 079-57W
Dec 15, 2019 - 09:56 PM EST / 2019.12.16 0256 UTC
Wind: Calm:0
Visibility: 10 mile(s):0
Sky conditions: overcast
Temperature: 28.0 F (-2.2 C)
Dew Point: 21.9 F (-5.6 C)
Relative Humidity: 77%
Pressure (altimeter): 30.14 in. Hg (1020 hPa)
Pressure tendency: 0.00 inches (0.1 hPa) lower than three hours ago
ob: KBTP 160256Z AUTO 00000KT 10SM OVC120 M02/M06 A3014 RMK AO2 SLP229 T10221056 58001 FZRANO
cycle: 3

Station Type Date Time Source
KBTP TAF UTC NOAA

Error!

Example: see airport list